Aérodrome :
LOGIN :

S'inscrire | Disclaimer

   EN    FR    IT 

 










Légende :    VFR   VFR Marginal   IFR   IFR Intensif   IFR Très Intensif
Visi : 
Plafond : 
>= 8 km
>= 3000ft
5 à 8 km
1000 à 3000 ft
1500m à 5 km
500 à 1000 ft
800 à 1500m
200 à 500 ft
< 800m
< 200 ft
Symboles :   Orages  Brouillard  Fortes neiges  Fortes précipitations  Vent > 20 kt
SIGMETs :   Divers  Orages  Givrage  Turbulence  Onde Orograph.  Cendres Volcan.







- Altitude de l'aérodrome : 458 ft
- Voir les cartes d'approche


LFSI - St-Dizier

DERNIER METAR :
  • 232200Z AUTO 10004KT CAVOK 12/08 Q0997

METARs EXPIRÉS :
  • 232130Z AUTO 08004KT CAVOK 12/08 Q0997
  • 232100Z AUTO 08003KT CAVOK 13/08 Q0997
  • 232030Z AUTO 10004KT CAVOK 13/08 Q0997
  • 232000Z AUTO 11004KT CAVOK 14/08 Q0997
  • 231930Z AUTO 10004KT CAVOK 14/09 Q0997

TAF TAF LFSI
Valide du 23 à 21h jusqu'au 24 à 21h UTC


232000Z 2321/2421 20010KT CAVOK
BECMG 2407/2409 18015G25KT
TEMPO 2409/2415 18015G35KT 4000 SHRA BKN040TCU BKN060 BKN100
PROB30
TEMPO 2413/2417 3000 SHRA FEW040CB
BECMG 2418/2420 16010KT
Pas de NOTAMs connus pour ce terrain.



MET'MAP, la Météo Aéronautique d'un coup d'oeil ! - Copyright ORBIFLY Décembre 2007 - Disclaimer

ORBIFLY MET'MAP TEAM :

Programmation & Développement : Alexandra Zaïnal
Conception & Développement : Baudouin d'Aumeries
Co-Programmation & Développement : Marc-Olivier Méhu
Soutien technique & logistique : Manuel Goepfert

Contact : metmap@orbifly.com




SOURCES & CREDITS :

   NOAA